Time;durP1;ratioP1;P1;durP2;ratioP2;P2;SDS_P1;SDS_P2;PMS_P1;PMS_P2;Temp;Humidity;BMP_temperature;BMP_pressure;BME280_temperature;BME280_humidity;BME280_pressure;Samples;Min_cycle;Max_cycle;Signal;HPM_P1;HPM_P2
2022/10/07 00:00:19;;;;;;;10.77;4.70;;;;;;;;;;4977143;28;20023;-76
2022/10/07 00:02:45;;;;;;;11.02;4.63;;;;;;;;;;4981653;28;20504;-77
2022/10/07 00:05:11;;;;;;;10.75;4.93;;;;;;;;;;4970602;28;20031;-75
2022/10/07 00:07:37;;;;;;;10.98;4.95;;;;;;;;;;4955533;28;20051;-76
2022/10/07 00:10:04;;;;;;;8.48;4.47;;;;;;;;;;4965812;28;20054;-75
2022/10/07 00:12:30;;;;;;;12.40;5.05;;;;;;;;;;4941486;28;20019;-76
2022/10/07 00:14:56;;;;;;;13.57;4.85;;;;;;;;;;4958182;28;20102;-77
2022/10/07 00:17:22;;;;;;;12.63;5.70;;;;;;;;;;4955513;28;20413;-78
2022/10/07 00:19:48;;;;;;;10.57;4.60;;;;;;;;;;4965991;28;20019;-77
2022/10/07 00:22:14;;;;;;;15.20;5.22;;;;;;;;;;4966645;28;20050;-77
2022/10/07 00:24:40;;;;;;;13.57;5.45;;;;;;;;;;4961784;28;20050;-77
2022/10/07 00:27:06;;;;;;;13.65;5.50;;;;;;;;;;4955222;28;20073;-73
2022/10/07 00:29:32;;;;;;;12.18;5.10;;;;;;;;;;4956446;28;20613;-76
2022/10/07 00:31:58;;;;;;;6.78;4.45;;;;;;;;;;4964485;28;20027;-76
2022/10/07 00:34:24;;;;;;;10.70;5.07;;;;;;;;;;4963717;28;20565;-75
2022/10/07 00:36:50;;;;;;;13.52;6.47;;;;;;;;;;4954889;28;20031;-76
2022/10/07 00:39:17;;;;;;;13.98;5.55;;;;;;;;;;4964419;28;20038;-77
2022/10/07 00:41:44;;;;;;;14.02;5.15;;;;;;;;;;4964019;28;20024;-76
2022/10/07 00:44:29;;;;;;;10.30;5.20;;;;;;;;;;4955601;28;20030;-77
2022/10/07 00:46:55;;;;;;;10.93;5.10;;;;;;;;;;4927369;29;20043;-76
2022/10/07 00:49:21;;;;;;;10.48;5.50;;;;;;;;;;4964945;28;20030;-77
2022/10/07 00:51:51;;;;;;;7.15;4.38;;;;;;;;;;4962095;28;20390;-77
2022/10/07 00:54:18;;;;;;;11.43;5.30;;;;;;;;;;4949505;28;20025;-76
2022/10/07 00:56:46;;;;;;;13.57;5.03;;;;;;;;;;4955330;28;20110;-72
2022/10/07 00:59:13;;;;;;;8.35;5.05;;;;;;;;;;4958718;28;20413;-76
2022/10/07 01:01:40;;;;;;;13.65;5.03;;;;;;;;;;4966413;28;20020;-77
2022/10/07 01:04:06;;;;;;;10.55;4.53;;;;;;;;;;4965938;28;20087;-77
2022/10/07 01:06:32;;;;;;;6.95;4.35;;;;;;;;;;4960626;28;20114;-76
2022/10/07 01:08:58;;;;;;;9.32;4.25;;;;;;;;;;4965128;28;20051;-76
2022/10/07 01:11:36;;;;;;;7.50;4.30;;;;;;;;;;4969896;28;20118;-76
2022/10/07 01:14:10;;;;;;;7.93;4.75;;;;;;;;;;4965514;28;20504;-76
2022/10/07 01:16:50;;;;;;;17.38;5.18;;;;;;;;;;4960471;28;20020;-76
2022/10/07 01:19:40;;;;;;;12.63;5.32;;;;;;;;;;4969690;28;20035;-77
2022/10/07 01:22:12;;;;;;;9.10;4.72;;;;;;;;;;4968024;28;20027;-77
2022/10/07 01:24:38;;;;;;;12.75;4.65;;;;;;;;;;4964746;28;20041;-78
2022/10/07 01:27:12;;;;;;;7.57;4.95;;;;;;;;;;4958263;28;20266;-75
2022/10/07 01:29:56;;;;;;;16.50;4.93;;;;;;;;;;4959694;28;20019;-77
2022/10/07 01:32:22;;;;;;;8.13;4.63;;;;;;;;;;4951467;28;20424;-77
2022/10/07 01:34:50;;;;;;;10.77;4.60;;;;;;;;;;4963217;28;20030;-77
2022/10/07 01:37:17;;;;;;;9.10;4.63;;;;;;;;;;4955457;29;20031;-77
2022/10/07 01:39:49;;;;;;;10.80;5.03;;;;;;;;;;4968268;28;20057;-77
2022/10/07 01:42:16;;;;;;;11.05;4.75;;;;;;;;;;4949800;28;20493;-78
2022/10/07 01:44:43;;;;;;;10.27;5.45;;;;;;;;;;4963801;28;20027;-78
2022/10/07 01:47:09;;;;;;;9.45;4.55;;;;;;;;;;4958450;28;20085;-77
2022/10/07 01:49:36;;;;;;;12.07;5.05;;;;;;;;;;4970653;28;20093;-79
2022/10/07 01:52:02;;;;;;;10.13;5.03;;;;;;;;;;4972000;28;20393;-78
2022/10/07 01:54:28;;;;;;;11.30;5.32;;;;;;;;;;4967273;28;20023;-77
2022/10/07 01:57:16;;;;;;;9.93;4.30;;;;;;;;;;4957733;28;20023;-77
2022/10/07 02:00:01;;;;;;;14.02;4.93;;;;;;;;;;4963195;28;20114;-79
2022/10/07 02:02:47;;;;;;;12.45;4.70;;;;;;;;;;4952170;28;20428;-78
2022/10/07 02:05:34;;;;;;;7.35;4.05;;;;;;;;;;4931954;29;20409;-78
2022/10/07 02:08:06;;;;;;;11.15;5.38;;;;;;;;;;4929700;28;20035;-78
2022/10/07 02:10:45;;;;;;;9.80;4.40;;;;;;;;;;4971799;28;20085;-77
2022/10/07 02:13:16;;;;;;;9.68;4.18;;;;;;;;;;4965397;28;20020;-76
2022/10/07 02:15:47;;;;;;;6.20;4.22;;;;;;;;;;4972963;28;20086;-78
2022/10/07 02:18:14;;;;;;;9.50;4.80;;;;;;;;;;4983637;28;20034;-79
2022/10/07 02:20:41;;;;;;;7.88;4.90;;;;;;;;;;4986983;28;20011;-78
2022/10/07 02:23:09;;;;;;;8.90;4.18;;;;;;;;;;4966893;28;20083;-77
2022/10/07 02:25:38;;;;;;;9.63;4.55;;;;;;;;;;4961500;28;20031;-77
2022/10/07 02:28:06;;;;;;;7.10;3.92;;;;;;;;;;4958630;28;20031;-77
2022/10/07 02:30:33;;;;;;;12.07;4.28;;;;;;;;;;4961637;28;20054;-77
2022/10/07 02:33:02;;;;;;;7.55;4.45;;;;;;;;;;4966359;28;20031;-77
2022/10/07 02:35:28;;;;;;;12.52;4.95;;;;;;;;;;4959575;28;20110;-76
2022/10/07 02:37:57;;;;;;;7.25;3.65;;;;;;;;;;4956866;28;20114;-76
2022/10/07 02:40:25;;;;;;;7.82;4.78;;;;;;;;;;4971017;28;20481;-76
2022/10/07 02:43:07;;;;;;;13.07;4.85;;;;;;;;;;4962629;28;20557;-75
2022/10/07 02:45:40;;;;;;;8.35;4.30;;;;;;;;;;4941785;28;20165;-76
2022/10/07 02:48:14;;;;;;;11.63;4.25;;;;;;;;;;4968764;28;20046;-77
2022/10/07 02:50:41;;;;;;;11.15;4.40;;;;;;;;;;4970372;28;20440;-77
2022/10/07 02:53:08;;;;;;;8.82;4.30;;;;;;;;;;4963075;28;20066;-78
2022/10/07 02:55:35;;;;;;;12.35;5.00;;;;;;;;;;4959131;28;20389;-77
2022/10/07 02:58:03;;;;;;;9.40;4.82;;;;;;;;;;4957264;28;20513;-77
2022/10/07 03:00:31;;;;;;;9.27;4.90;;;;;;;;;;4960422;28;20062;-79
2022/10/07 03:03:00;;;;;;;9.27;4.65;;;;;;;;;;4965872;28;20030;-76
2022/10/07 03:05:26;;;;;;;8.13;4.80;;;;;;;;;;4958640;28;20081;-76
2022/10/07 03:07:55;;;;;;;10.00;4.55;;;;;;;;;;4955501;28;20367;-78
2022/10/07 03:10:21;;;;;;;11.23;4.78;;;;;;;;;;4941244;28;20023;-77
2022/10/07 03:12:47;;;;;;;11.13;5.00;;;;;;;;;;4966926;28;20069;-77
2022/10/07 03:15:13;;;;;;;10.90;4.82;;;;;;;;;;4958873;28;20110;-77
2022/10/07 03:17:39;;;;;;;10.23;4.50;;;;;;;;;;4956122;28;20031;-78
2022/10/07 03:20:06;;;;;;;6.65;4.43;;;;;;;;;;4956538;28;20031;-78
2022/10/07 03:22:32;;;;;;;7.20;3.92;;;;;;;;;;4967441;28;20027;-79
2022/10/07 03:24:58;;;;;;;7.93;4.35;;;;;;;;;;4962222;28;20119;-78
2022/10/07 03:27:24;;;;;;;13.98;4.78;;;;;;;;;;4981272;28;20019;-79
2022/10/07 03:29:50;;;;;;;9.90;5.13;;;;;;;;;;4983208;28;20084;-79
2022/10/07 03:32:16;;;;;;;12.40;5.35;;;;;;;;;;4983149;28;20041;-79
2022/10/07 03:34:42;;;;;;;7.97;4.60;;;;;;;;;;4977131;28;20037;-78
2022/10/07 03:37:08;;;;;;;8.55;4.97;;;;;;;;;;4953737;29;20039;-76
2022/10/07 03:39:34;;;;;;;12.63;4.90;;;;;;;;;;4966279;28;20113;-76
2022/10/07 03:42:00;;;;;;;9.63;4.95;;;;;;;;;;4965281;28;20065;-77
2022/10/07 03:44:26;;;;;;;12.68;4.95;;;;;;;;;;4963970;28;20470;-76
2022/10/07 03:46:52;;;;;;;9.07;4.90;;;;;;;;;;4955714;28;20101;-77
2022/10/07 03:49:19;;;;;;;11.75;5.45;;;;;;;;;;4947815;28;20045;-77
2022/10/07 03:51:45;;;;;;;14.13;5.75;;;;;;;;;;4964423;28;20039;-77
2022/10/07 03:54:11;;;;;;;7.00;4.85;;;;;;;;;;4964004;28;20023;-77
2022/10/07 03:56:37;;;;;;;8.43;5.20;;;;;;;;;;4957408;28;20030;-77
2022/10/07 03:59:03;;;;;;;8.77;5.15;;;;;;;;;;4956537;28;20389;-75
2022/10/07 04:01:30;;;;;;;10.07;5.70;;;;;;;;;;4963282;28;20019;-76
2022/10/07 04:03:56;;;;;;;9.15;5.10;;;;;;;;;;4961424;28;20059;-75
2022/10/07 04:06:22;;;;;;;11.13;5.20;;;;;;;;;;4959138;28;20054;-78
2022/10/07 04:08:52;;;;;;;10.27;5.55;;;;;;;;;;4961365;28;20069;-78
2022/10/07 04:11:18;;;;;;;9.95;5.43;;;;;;;;;;4966257;28;20027;-76
2022/10/07 04:13:44;;;;;;;10.05;5.18;;;;;;;;;;4960819;28;20497;-75
2022/10/07 04:16:11;;;;;;;13.48;5.15;;;;;;;;;;4959847;28;20045;-75
2022/10/07 04:18:38;;;;;;;8.50;4.93;;;;;;;;;;4942284;28;20030;-76
2022/10/07 04:21:04;;;;;;;14.32;5.75;;;;;;;;;;4969479;28;20027;-76
2022/10/07 04:23:30;;;;;;;11.15;5.70;;;;;;;;;;4960884;28;20027;-77
2022/10/07 04:25:56;;;;;;;12.18;6.38;;;;;;;;;;4958664;28;20081;-76
2022/10/07 04:28:24;;;;;;;19.90;7.85;;;;;;;;;;4957731;28;20015;-76
2022/10/07 04:30:50;;;;;;;15.18;7.45;;;;;;;;;;4944174;28;20026;-78
2022/10/07 04:33:18;;;;;;;15.63;8.02;;;;;;;;;;4963655;28;20433;-76
2022/10/07 04:35:44;;;;;;;25.75;8.05;;;;;;;;;;4962120;28;20086;-78
2022/10/07 04:38:11;;;;;;;17.15;8.43;;;;;;;;;;4962246;28;20089;-79
2022/10/07 04:40:40;;;;;;;19.35;7.78;;;;;;;;;;4974697;28;20023;-79
2022/10/07 04:43:21;;;;;;;16.88;7.70;;;;;;;;;;4970320;28;20032;-79
2022/10/07 04:45:48;;;;;;;14.75;7.10;;;;;;;;;;4964526;28;20042;-78
2022/10/07 04:48:17;;;;;;;12.13;7.13;;;;;;;;;;4967153;28;20429;-78
2022/10/07 04:50:43;;;;;;;18.02;7.82;;;;;;;;;;4990742;28;20021;-77
2022/10/07 04:53:10;;;;;;;14.23;8.05;;;;;;;;;;4982724;28;20023;-76
2022/10/07 04:55:39;;;;;;;13.68;7.28;;;;;;;;;;4976860;28;20031;-76
2022/10/07 04:58:05;;;;;;;14.40;7.05;;;;;;;;;;4972885;28;20042;-73
2022/10/07 05:00:31;;;;;;;16.33;7.40;;;;;;;;;;4963417;28;20421;-77
2022/10/07 05:02:58;;;;;;;13.77;7.53;;;;;;;;;;4968147;28;20035;-78
2022/10/07 05:05:24;;;;;;;11.43;7.15;;;;;;;;;;4961240;28;20027;-78
2022/10/07 05:07:51;;;;;;;14.15;7.20;;;;;;;;;;4958685;28;20026;-78
2022/10/07 05:10:17;;;;;;;15.82;6.90;;;;;;;;;;4972958;28;20057;-78
2022/10/07 05:12:44;;;;;;;13.43;6.53;;;;;;;;;;4969928;28;20023;-79
2022/10/07 05:15:10;;;;;;;15.23;9.07;;;;;;;;;;4959855;28;20028;-76
2022/10/07 05:17:39;;;;;;;12.10;7.65;;;;;;;;;;4958326;28;20027;-78
2022/10/07 05:20:06;;;;;;;12.93;6.68;;;;;;;;;;4970922;28;20437;-78
2022/10/07 05:22:33;;;;;;;16.38;7.93;;;;;;;;;;4969535;28;20023;-76
2022/10/07 05:24:58;;;;;;;14.13;8.02;;;;;;;;;;4962492;28;20034;-77
2022/10/07 05:27:25;;;;;;;15.85;8.73;;;;;;;;;;4957872;28;20032;-77
2022/10/07 05:29:51;;;;;;;15.30;8.18;;;;;;;;;;4959532;28;20057;-76
2022/10/07 05:32:17;;;;;;;17.55;10.02;;;;;;;;;;4969841;28;20019;-77
2022/10/07 05:34:46;;;;;;;16.60;8.98;;;;;;;;;;4964315;28;20022;-77
2022/10/07 05:37:14;;;;;;;19.27;10.35;;;;;;;;;;4957744;28;20027;-76
2022/10/07 05:39:40;;;;;;;18.05;10.02;;;;;;;;;;4968380;28;20501;-76
2022/10/07 05:42:06;;;;;;;18.23;9.63;;;;;;;;;;4958305;28;20038;-76
2022/10/07 05:44:32;;;;;;;13.18;6.88;;;;;;;;;;4965293;28;20025;-77
2022/10/07 05:46:58;;;;;;;9.00;5.18;;;;;;;;;;4958250;28;20107;-75
2022/10/07 05:49:24;;;;;;;13.73;5.15;;;;;;;;;;4968471;28;20027;-79
2022/10/07 05:51:50;;;;;;;9.70;5.38;;;;;;;;;;4969724;28;20031;-78
2022/10/07 05:54:17;;;;;;;9.07;4.95;;;;;;;;;;4965305;28;20501;-77
2022/10/07 05:56:43;;;;;;;11.30;4.70;;;;;;;;;;4958769;28;20382;-78
2022/10/07 05:59:10;;;;;;;9.65;3.97;;;;;;;;;;4942548;29;20102;-78
2022/10/07 06:01:36;;;;;;;6.97;3.80;;;;;;;;;;4965766;28;20713;-79
2022/10/07 06:04:04;;;;;;;7.38;3.38;;;;;;;;;;4964756;28;20545;-78
2022/10/07 06:06:30;;;;;;;9.65;3.53;;;;;;;;;;4960124;28;20474;-77
2022/10/07 06:13:06;;;;;;;10.43;3.92;;;;;;;;;;4971032;28;20054;-76
2022/10/07 06:14:30;;;;;;;8.68;3.38;;;;;;;;;;4954797;28;20426;-76
2022/10/07 06:16:56;;;;;;;6.25;3.67;;;;;;;;;;4955538;28;20027;-75
2022/10/07 06:19:22;;;;;;;6.53;3.33;;;;;;;;;;4949589;28;20035;-76
2022/10/07 06:21:48;;;;;;;7.10;3.45;;;;;;;;;;4968344;28;20103;-79
2022/10/07 06:24:14;;;;;;;6.60;3.80;;;;;;;;;;4965955;28;20054;-77
2022/10/07 06:26:43;;;;;;;8.60;3.75;;;;;;;;;;4958060;28;20027;-76
2022/10/07 06:29:09;;;;;;;7.68;3.60;;;;;;;;;;4958192;28;20027;-76
2022/10/07 06:31:35;;;;;;;4.43;2.80;;;;;;;;;;4965200;28;20448;-74
2022/10/07 06:34:01;;;;;;;6.45;3.17;;;;;;;;;;4963879;28;20057;-75
2022/10/07 06:36:27;;;;;;;5.70;3.45;;;;;;;;;;4965782;28;20027;-76
2022/10/07 06:38:54;;;;;;;6.07;3.15;;;;;;;;;;4971748;28;20054;-76
2022/10/07 06:41:21;;;;;;;6.00;3.50;;;;;;;;;;4968993;28;20058;-72
2022/10/07 06:43:47;;;;;;;9.15;4.22;;;;;;;;;;4968657;28;20101;-73
2022/10/07 06:46:15;;;;;;;6.53;3.53;;;;;;;;;;4954318;28;20508;-72
2022/10/07 06:48:41;;;;;;;7.50;3.40;;;;;;;;;;4960719;28;20029;-73
2022/10/07 06:51:08;;;;;;;9.50;4.13;;;;;;;;;;4969883;28;20019;-73
2022/10/07 06:53:34;;;;;;;7.93;3.75;;;;;;;;;;4961453;28;20054;-73
2022/10/07 06:56:01;;;;;;;6.70;3.05;;;;;;;;;;4959522;28;20035;-74
2022/10/07 06:58:27;;;;;;;6.35;3.35;;;;;;;;;;4956102;28;20042;-75
2022/10/07 07:00:54;;;;;;;5.97;3.00;;;;;;;;;;4950787;28;20028;-75
2022/10/07 07:03:20;;;;;;;6.45;2.75;;;;;;;;;;4961241;28;20046;-72
2022/10/07 07:05:47;;;;;;;5.10;3.33;;;;;;;;;;4967574;28;20153;-78
2022/10/07 07:08:14;;;;;;;8.15;3.55;;;;;;;;;;4961890;28;20019;-77
2022/10/07 07:10:41;;;;;;;11.43;3.80;;;;;;;;;;4953585;29;20030;-79
2022/10/07 07:13:11;;;;;;;6.82;3.17;;;;;;;;;;4953419;29;20070;-77
2022/10/07 07:45:49;;;;;;;;;;;;;;;;;;;;;
2022/10/07 07:49:12;;;;;;;;;;;;;;;;;;;;;
2022/10/07 08:01:44;;;;;;;6.90;4.57;;;;;;;;;;4861042;29;20034;-78
2022/10/07 08:07:33;;;;;;;;;;;;;;;;;;;;;
2022/10/07 08:10:41;;;;;;;11.32;4.93;;;;;;;;;;4975689;28;20045;-78
2022/10/07 08:19:55;;;;;;;23.05;4.88;;;;;;;;;;4844491;29;20029;-78
2022/10/07 08:22:47;;;;;;;9.27;4.68;;;;;;;;;;4843612;29;20042;-78
2022/10/07 08:28:21;;;;;;;8.55;4.93;;;;;;;;;;3132363;26;20528;-79
2022/10/07 08:31:05;;;;;;;;;;;;;;;;;;;;;
2022/10/07 08:34:01;;;;;;;7.90;4.38;;;;;;;;;;4997623;28;20030;-74
2022/10/07 08:36:39;;;;;;;6.72;4.43;;;;;;;;;;4997929;28;20035;-84
2022/10/07 08:42:46;;;;;;;10.55;3.95;;;;;;;;;;4953053;28;20555;-77
2022/10/07 08:45:30;;;;;;;5.80;3.88;;;;;;;;;;4958026;28;20512;-78
2022/10/07 08:48:06;;;;;;;6.38;3.55;;;;;;;;;;4958639;28;20071;-78
2022/10/07 08:54:22;;;;;;;;;;;;;;;;;;;;;
2022/10/07 08:57:26;;;;;;;8.02;3.75;;;;;;;;;;4943788;28;20023;-77
2022/10/07 09:00:03;;;;;;;8.90;3.80;;;;;;;;;;4889147;28;20510;-76
2022/10/07 09:09:34;;;;;;;;;;;;;;;;;;;;;
2022/10/07 09:15:08;;;;;;;8.65;3.47;;;;;;;;;;4968861;28;20038;-75
2022/10/07 09:30:17;;;;;;;;;;;;;;;;;;;;;
2022/10/07 09:35:56;;;;;;;9.48;3.92;;;;;;;;;;4870005;29;20064;-78
2022/10/07 09:51:39;;;;;;;;;;;;;;;;;;;;;
2022/10/07 09:54:16;;;;;;;7.72;4.00;;;;;;;;;;4984976;28;20417;-77
2022/10/07 09:56:56;;;;;;;9.65;3.17;;;;;;;;;;4954682;28;20093;-77
2022/10/07 09:59:26;;;;;;;7.13;3.33;;;;;;;;;;4993870;23;20033;-78
2022/10/07 10:01:57;;;;;;;6.03;3.22;;;;;;;;;;4981131;28;20030;-78
2022/10/07 10:04:28;;;;;;;7.00;3.33;;;;;;;;;;4992308;28;20030;-78
2022/10/07 10:06:54;;;;;;;;;;;;;;;;;;4972551;28;20026;-79
2022/10/07 10:09:22;;;;;;;4.35;2.40;;;;;;;;;;4991382;28;20423;-78
2022/10/07 10:12:02;;;;;;;5.70;2.50;;;;;;;;;;4975820;28;20022;-79
2022/10/07 10:14:46;;;;;;;8.68;3.05;;;;;;;;;;4956807;28;20030;-80
2022/10/07 10:17:20;;;;;;;4.78;3.25;;;;;;;;;;4973266;28;20110;-79
2022/10/07 10:19:46;;;;;;;5.35;2.90;;;;;;;;;;4974681;28;20034;-78
2022/10/07 10:22:23;;;;;;;4.60;3.10;;;;;;;;;;4974502;28;20031;-79
2022/10/07 10:27:40;;;;;;;5.65;2.85;;;;;;;;;;4975416;28;20034;-80
2022/10/07 10:30:09;;;;;;;5.32;2.33;;;;;;;;;;4956291;28;20402;-79
2022/10/07 10:33:14;;;;;;;3.75;2.22;;;;;;;;;;4974399;28;20468;-79
2022/10/07 10:35:43;;;;;;;7.32;2.72;;;;;;;;;;4886497;29;20035;-79
2022/10/07 10:38:27;;;;;;;6.82;3.50;;;;;;;;;;4895418;29;20025;-79
2022/10/07 10:41:02;;;;;;;5.45;2.60;;;;;;;;;;4943677;28;20042;-79
2022/10/07 10:43:47;;;;;;;6.43;3.00;;;;;;;;;;4959159;28;20077;-80
2022/10/07 10:46:14;;;;;;;8.73;3.15;;;;;;;;;;4976844;28;20038;-80
2022/10/07 10:49:16;;;;;;;7.45;2.72;;;;;;;;;;4974768;28;20014;-79
2022/10/07 10:51:42;;;;;;;12.48;2.88;;;;;;;;;;4915511;29;20028;-81
2022/10/07 10:54:11;;;;;;;5.82;3.08;;;;;;;;;;4946646;28;20030;-81
2022/10/07 10:56:37;;;;;;;4.85;2.63;;;;;;;;;;4973780;28;20046;-81
2022/10/07 10:59:20;;;;;;;5.13;3.15;;;;;;;;;;4973616;28;20505;-80
2022/10/07 11:01:52;;;;;;;9.35;2.75;;;;;;;;;;4974252;28;20050;-79
2022/10/07 11:04:42;;;;;;;5.50;3.08;;;;;;;;;;4957207;28;20141;-79
2022/10/07 11:07:28;;;;;;;7.35;2.83;;;;;;;;;;4946480;28;20027;-80
2022/10/07 11:09:57;;;;;;;9.43;2.65;;;;;;;;;;4975226;28;20019;-79
2022/10/07 11:12:27;;;;;;;8.73;2.80;;;;;;;;;;4975006;28;20062;-80
2022/10/07 11:14:56;;;;;;;3.38;2.17;;;;;;;;;;4974051;28;20030;-79
2022/10/07 11:17:24;;;;;;;7.22;2.42;;;;;;;;;;4974579;28;20026;-79
2022/10/07 11:19:56;;;;;;;3.15;2.20;;;;;;;;;;4974767;28;20037;-79
2022/10/07 11:22:31;;;;;;;5.03;2.10;;;;;;;;;;4979310;28;20019;-79
2022/10/07 11:25:02;;;;;;;3.92;2.55;;;;;;;;;;4979932;28;20031;-79
2022/10/07 11:27:33;;;;;;;4.00;2.20;;;;;;;;;;4960619;28;20111;-79
2022/10/07 11:30:30;;;;;;;4.03;2.30;;;;;;;;;;4975157;28;20508;-79
2022/10/07 11:33:17;;;;;;;5.70;2.78;;;;;;;;;;4948837;28;20633;-79
2022/10/07 11:35:46;;;;;;;7.25;2.60;;;;;;;;;;4961768;28;20034;-79
2022/10/07 11:38:12;;;;;;;7.25;2.60;;;;;;;;;;4974924;28;20409;-80
2022/10/07 11:40:50;;;;;;;3.63;2.50;;;;;;;;;;4975471;28;20030;-80
2022/10/07 11:43:25;;;;;;;4.57;2.80;;;;;;;;;;4974402;28;20031;-79
2022/10/07 11:45:55;;;;;;;6.10;2.83;;;;;;;;;;4957519;28;20174;-79
2022/10/07 11:48:30;;;;;;;5.25;2.58;;;;;;;;;;4975876;28;20026;-80
2022/10/07 11:51:01;;;;;;;6.95;2.53;;;;;;;;;;4974910;28;20050;-79
2022/10/07 11:53:28;;;;;;;4.72;2.63;;;;;;;;;;4959027;28;20019;-80
2022/10/07 11:56:23;;;;;;;4.72;2.80;;;;;;;;;;4977167;28;20031;-80
2022/10/07 11:59:02;;;;;;;7.97;2.58;;;;;;;;;;4953242;28;20052;-80
2022/10/07 12:01:28;;;;;;;4.70;2.63;;;;;;;;;;4961211;28;20031;-79
2022/10/07 12:04:00;;;;;;;5.13;2.50;;;;;;;;;;4961723;28;20043;-79
2022/10/07 12:06:27;;;;;;;3.63;2.05;;;;;;;;;;4980821;28;20037;-80
2022/10/07 12:08:53;;;;;;;4.57;2.30;;;;;;;;;;4981347;28;20038;-79
2022/10/07 12:11:23;;;;;;;3.47;2.30;;;;;;;;;;4979664;28;20050;-79
2022/10/07 12:13:50;;;;;;;5.53;2.55;;;;;;;;;;4973725;28;20030;-80
2022/10/07 12:16:22;;;;;;;5.88;2.97;;;;;;;;;;4956424;28;20034;-79
2022/10/07 12:19:07;;;;;;;2.63;2.28;;;;;;;;;;4972993;28;20019;-79
2022/10/07 12:22:07;;;;;;;5.22;2.40;;;;;;;;;;4955899;28;20070;-80
2022/10/07 12:24:34;;;;;;;4.13;2.65;;;;;;;;;;4924709;28;20093;-79
2022/10/07 12:27:08;;;;;;;3.17;2.47;;;;;;;;;;4973126;28;20482;-79
2022/10/07 12:29:47;;;;;;;4.22;2.65;;;;;;;;;;4972615;28;20371;-79
2022/10/07 12:32:39;;;;;;;3.28;2.40;;;;;;;;;;4973075;28;20027;-79
2022/10/07 12:35:34;;;;;;;5.70;2.35;;;;;;;;;;4957933;28;20037;-78
2022/10/07 12:38:15;;;;;;;4.10;2.60;;;;;;;;;;4950620;28;20033;-78
2022/10/07 12:40:43;;;;;;;7.75;2.53;;;;;;;;;;4973217;28;20027;-79
2022/10/07 12:43:33;;;;;;;6.70;2.30;;;;;;;;;;4954448;28;20438;-78
2022/10/07 12:45:59;;;;;;;5.53;2.45;;;;;;;;;;4970537;28;20030;-79
2022/10/07 12:48:35;;;;;;;3.30;1.70;;;;;;;;;;4953318;28;20481;-79
2022/10/07 12:51:03;;;;;;;1.80;1.63;;;;;;;;;;4974132;28;20462;-79
2022/10/07 12:53:30;;;;;;;5.93;2.08;;;;;;;;;;4956151;28;20015;-78
2022/10/07 12:55:56;;;;;;;2.85;1.80;;;;;;;;;;4976936;28;20031;-79
2022/10/07 13:01:35;;;;;;;7.45;2.53;;;;;;;;;;4977596;28;20062;-79
2022/10/07 13:04:27;;;;;;;4.57;1.90;;;;;;;;;;4977307;28;20047;-79
2022/10/07 13:07:11;;;;;;;5.63;2.00;;;;;;;;;;4989388;28;20030;-79
2022/10/07 13:09:46;;;;;;;3.78;1.98;;;;;;;;;;4959569;28;20497;-79
2022/10/07 13:12:19;;;;;;;4.30;2.25;;;;;;;;;;4960395;28;20030;-79
2022/10/07 13:14:48;;;;;;;2.53;1.98;;;;;;;;;;4958495;28;20034;-79
2022/10/07 13:17:34;;;;;;;2.88;1.83;;;;;;;;;;4958809;28;20034;-79
2022/10/07 13:20:12;;;;;;;4.35;1.80;;;;;;;;;;4977982;28;20113;-79
2022/10/07 13:22:43;;;;;;;8.60;2.28;;;;;;;;;;4976296;28;20026;-79
2022/10/07 13:25:11;;;;;;;5.03;2.63;;;;;;;;;;4958108;28;20038;-79
2022/10/07 13:27:37;;;;;;;4.10;2.45;;;;;;;;;;4958295;28;20077;-80
2022/10/07 13:30:05;;;;;;;6.65;2.05;;;;;;;;;;4975502;28;20029;-80
2022/10/07 13:32:34;;;;;;;6.95;2.30;;;;;;;;;;4958125;28;20023;-79
2022/10/07 13:35:21;;;;;;;4.18;1.80;;;;;;;;;;4956732;28;20113;-80
2022/10/07 13:37:47;;;;;;;3.50;2.05;;;;;;;;;;4958879;28;20034;-81
2022/10/07 13:40:20;;;;;;;2.97;1.70;;;;;;;;;;4977279;28;20023;-80
2022/10/07 13:43:06;;;;;;;5.65;1.80;;;;;;;;;;4960756;28;20031;-80
2022/10/07 13:45:39;;;;;;;7.68;1.90;;;;;;;;;;4961833;28;20023;-79
2022/10/07 13:48:05;;;;;;;7.25;2.30;;;;;;;;;;4959333;28;20031;-80
2022/10/07 13:50:33;;;;;;;3.30;1.92;;;;;;;;;;4977385;28;20051;-80
2022/10/07 13:53:00;;;;;;;5.15;2.00;;;;;;;;;;4959572;28;20065;-81
2022/10/07 13:55:29;;;;;;;4.60;1.98;;;;;;;;;;4960223;28;20521;-80
2022/10/07 13:57:56;;;;;;;4.13;1.48;;;;;;;;;;4976864;28;20485;-78
2022/10/07 14:00:25;;;;;;;7.38;1.80;;;;;;;;;;4960124;28;20034;-79
2022/10/07 14:02:51;;;;;;;3.95;1.95;;;;;;;;;;4980460;28;20030;-79
2022/10/07 14:05:21;;;;;;;3.50;1.67;;;;;;;;;;4970289;28;20378;-79
2022/10/07 14:07:52;;;;;;;2.72;1.90;;;;;;;;;;4966113;28;20441;-80
2022/10/07 14:10:18;;;;;;;5.55;2.05;;;;;;;;;;4984798;28;20041;-81
2022/10/07 14:12:46;;;;;;;6.95;2.13;;;;;;;;;;4992415;28;20031;-80
2022/10/07 14:15:23;;;;;;;3.45;1.90;;;;;;;;;;4973865;28;20023;-81
2022/10/07 14:17:53;;;;;;;6.55;1.92;;;;;;;;;;4979815;28;20037;-80
2022/10/07 14:20:24;;;;;;;7.97;2.13;;;;;;;;;;4974602;28;20081;-78
2022/10/07 14:22:52;;;;;;;4.55;2.13;;;;;;;;;;4957472;28;20034;-78
2022/10/07 14:25:27;;;;;;;6.05;1.73;;;;;;;;;;4974315;28;20027;-80
2022/10/07 14:27:57;;;;;;;2.97;1.63;;;;;;;;;;4973169;28;20072;-79
2022/10/07 14:36:25;;;;;;;5.50;1.88;;;;;;;;;;4972523;28;20050;-79
2022/10/07 14:38:56;;;;;;;3.20;1.90;;;;;;;;;;4956988;28;20509;-80
2022/10/07 14:41:26;;;;;;;7.38;1.70;;;;;;;;;;4959616;28;20067;-80
2022/10/07 14:43:52;;;;;;;5.78;1.25;;;;;;;;;;4977611;28;20031;-79
2022/10/07 14:46:19;;;;;;;4.18;1.63;;;;;;;;;;4959549;28;20035;-80
2022/10/07 14:48:46;;;;;;;7.28;2.33;;;;;;;;;;4976336;28;20019;-80
2022/10/07 14:51:13;;;;;;;7.55;1.52;;;;;;;;;;4975375;28;20074;-79
2022/10/07 14:53:42;;;;;;;3.13;1.30;;;;;;;;;;4974476;28;20018;-79
2022/10/07 14:56:13;;;;;;;4.57;1.55;;;;;;;;;;4975084;28;20030;-79
2022/10/07 14:58:41;;;;;;;5.60;1.85;;;;;;;;;;4957712;28;20319;-79
2022/10/07 15:01:07;;;;;;;5.85;1.92;;;;;;;;;;4957688;28;20045;-79
2022/10/07 15:03:36;;;;;;;8.48;1.90;;;;;;;;;;4976121;28;20050;-79
2022/10/07 15:06:02;;;;;;;4.05;1.58;;;;;;;;;;4958135;28;20031;-79
2022/10/07 15:08:30;;;;;;;3.05;1.58;;;;;;;;;;4957859;28;20023;-79
2022/10/07 15:10:56;;;;;;;3.88;1.58;;;;;;;;;;4975924;28;20047;-79
2022/10/07 15:13:22;;;;;;;4.18;1.63;;;;;;;;;;4958228;28;20031;-80
2022/10/07 15:15:48;;;;;;;6.68;1.98;;;;;;;;;;4958569;28;20050;-80
2022/10/07 15:18:14;;;;;;;4.13;2.20;;;;;;;;;;4959416;28;20042;-80
2022/10/07 15:20:40;;;;;;;5.20;1.70;;;;;;;;;;4978569;28;20081;-81
2022/10/07 15:23:07;;;;;;;2.55;1.52;;;;;;;;;;4976483;28;20034;-80
2022/10/07 15:25:34;;;;;;;5.03;1.92;;;;;;;;;;4959423;28;20037;-80
2022/10/07 15:28:03;;;;;;;7.00;2.25;;;;;;;;;;4958978;28;20031;-79
2022/10/07 15:30:29;;;;;;;2.80;1.35;;;;;;;;;;4960056;28;20042;-80
2022/10/07 15:32:59;;;;;;;2.72;1.65;;;;;;;;;;4960597;28;20034;-79
2022/10/07 15:35:30;;;;;;;4.65;1.60;;;;;;;;;;4961213;28;20035;-78
2022/10/07 15:37:56;;;;;;;10.07;2.40;;;;;;;;;;4987629;28;20050;-81
2022/10/07 15:40:22;;;;;;;5.55;3.10;;;;;;;;;;4987963;28;20126;-80
2022/10/07 15:42:48;;;;;;;10.50;4.88;;;;;;;;;;4972510;28;20046;-80
2022/10/07 15:45:16;;;;;;;9.00;3.88;;;;;;;;;;4991369;28;20030;-80
2022/10/07 15:47:43;;;;;;;24.65;11.82;;;;;;;;;;4989258;28;20042;-80
2022/10/07 15:50:09;;;;;;;47.47;24.98;;;;;;;;;;4968383;28;20027;-79
2022/10/07 15:52:35;;;;;;;96.63;49.65;;;;;;;;;;4984664;28;20470;-79
2022/10/07 15:55:03;;;;;;;59.42;36.13;;;;;;;;;;4983262;28;20034;-79
2022/10/07 15:57:31;;;;;;;35.75;22.27;;;;;;;;;;4966266;28;20033;-80
2022/10/07 16:03:18;;;;;;;13.63;9.43;;;;;;;;;;4965462;28;20412;-78
2022/10/07 16:06:13;;;;;;;16.63;7.15;;;;;;;;;;4956021;28;20074;-80
2022/10/07 16:09:40;;;;;;;;;;;;;;;;;;;;;
2022/10/07 16:11:40;;;;;;;7.95;4.00;;;;;;;;;;4959019;28;20106;-78
2022/10/07 16:14:14;;;;;;;7.13;3.42;;;;;;;;;;4973947;28;20038;-79
2022/10/07 16:16:41;;;;;;;8.00;3.35;;;;;;;;;;4974384;28;20109;-77
2022/10/07 16:19:17;;;;;;;5.40;3.38;;;;;;;;;;4973938;28;20042;-77
2022/10/07 16:24:54;;;;;;;14.45;9.40;;;;;;;;;;4797273;26;20055;-78
2022/10/07 16:30:53;;;;;;;;;;;;;;;;;;;;;
2022/10/07 16:33:47;;;;;;;;;;;;;;;;;;;;;
2022/10/07 16:36:17;;;;;;;22.38;14.68;;;;;;;;;;4998961;23;20077;-79
2022/10/07 16:38:43;;;;;;;16.70;10.40;;;;;;;;;;4976901;28;20110;-79
2022/10/07 16:41:09;;;;;;;18.05;9.30;;;;;;;;;;4978540;28;20018;-80
2022/10/07 16:43:38;;;;;;;18.55;10.63;;;;;;;;;;4978736;28;20047;-80
2022/10/07 16:46:17;;;;;;;7.72;3.75;;;;;;;;;;4961793;28;20030;-79
2022/10/07 16:48:44;;;;;;;6.40;3.00;;;;;;;;;;4978161;28;20019;-79
2022/10/07 16:51:11;;;;;;;5.10;2.75;;;;;;;;;;4978676;28;20113;-72
2022/10/07 16:53:37;;;;;;;8.30;3.72;;;;;;;;;;4976219;28;20078;-73
2022/10/07 16:56:06;;;;;;;6.50;3.58;;;;;;;;;;4980833;28;20037;-81
2022/10/07 16:58:37;;;;;;;10.10;4.88;;;;;;;;;;4984501;28;20035;-79
2022/10/07 17:01:04;;;;;;;10.47;5.57;;;;;;;;;;4976847;28;20019;-78
2022/10/07 17:03:30;;;;;;;14.48;7.72;;;;;;;;;;4963061;28;20015;-79
2022/10/07 17:05:56;;;;;;;14.77;11.05;;;;;;;;;;4976759;28;20035;-80
2022/10/07 17:08:23;;;;;;;17.27;11.52;;;;;;;;;;4976384;28;20053;-80
2022/10/07 17:10:49;;;;;;;16.25;11.23;;;;;;;;;;4984919;28;20047;-78
2022/10/07 17:13:17;;;;;;;15.48;10.77;;;;;;;;;;4978570;28;20015;-77